Time;durP1;ratioP1;P1;durP2;ratioP2;P2;SDS_P1;SDS_P2;PMS_P1;PMS_P2;Temp;Humidity;BMP_temperature;BMP_pressure;BME280_temperature;BME280_humidity;BME280_pressure;Samples;Min_cycle;Max_cycle;Signal;HPM_P1;HPM_P2
2023/01/10 00:01:08;;;;;;;1.42;0.50;;;4.50;99.90;;;3.50;100.00;96883.59;5017424;28;20035;-37
2023/01/10 00:03:33;;;;;;;0.68;0.47;;;4.50;99.90;;;3.41;100.00;96882.00;5019140;28;20141;-37
2023/01/10 00:05:59;;;;;;;1.15;0.50;;;4.50;99.90;;;3.66;100.00;96924.19;5016761;28;20052;-37
2023/01/10 00:08:25;;;;;;;0.98;0.50;;;4.50;99.90;;;3.66;100.00;96915.50;5019810;28;20040;-37
2023/01/10 00:10:50;;;;;;;0.28;0.28;;;4.50;99.90;;;3.63;100.00;96921.63;5016609;28;20627;-37
2023/01/10 00:13:23;;;;;;;0.88;0.50;;;4.50;99.90;;;3.63;100.00;96924.25;5013848;28;20025;-37
2023/01/10 00:15:54;;;;;;;0.60;0.47;;;4.50;99.90;;;3.62;100.00;96925.13;5005330;28;20084;-37
2023/01/10 00:18:20;;;;;;;2.65;0.50;;;4.50;99.90;;;3.62;100.00;96927.72;5025633;28;20034;-37
2023/01/10 00:20:48;;;;;;;0.50;0.45;;;4.50;99.90;;;3.63;100.00;96932.06;5021942;28;20075;-37
2023/01/10 00:23:14;;;;;;;0.80;0.50;;;4.50;99.90;;;3.62;100.00;96925.13;5016873;28;20095;-37
2023/01/10 00:25:41;;;;;;;1.05;0.63;;;4.50;99.90;;;3.61;100.00;96939.06;5020658;28;20029;-37
2023/01/10 00:28:18;;;;;;;1.35;0.70;;;4.40;99.90;;;3.61;100.00;96933.84;5021842;28;20037;-37
2023/01/10 00:31:00;;;;;;;0.82;0.65;;;4.50;99.90;;;3.61;100.00;96941.66;5008824;28;20045;-37
2023/01/10 00:33:27;;;;;;;0.60;0.60;;;4.50;99.90;;;3.67;100.00;96946.75;5013796;28;20363;-37
2023/01/10 00:35:53;;;;;;;1.38;0.70;;;4.50;99.90;;;3.59;100.00;96939.06;5006231;28;21416;-38
2023/01/10 00:38:18;;;;;;;4.15;0.70;;;4.50;99.90;;;3.60;100.00;96940.78;5012564;28;20036;-38
2023/01/10 00:40:45;;;;;;;1.27;0.70;;;4.50;99.90;;;3.67;100.00;96954.59;5013438;28;20120;-38
2023/01/10 00:45:56;;;;;;;1.30;0.85;;;4.50;99.90;;;3.68;100.00;96963.25;5017439;28;20037;-37
2023/01/10 00:48:22;;;;;;;0.90;0.65;;;4.50;99.90;;;3.68;100.00;96966.75;5020329;28;20037;-37
2023/01/10 00:50:48;;;;;;;0.98;0.77;;;4.50;99.90;;;3.67;100.00;96969.38;5022638;28;20487;-38
2023/01/10 00:53:14;;;;;;;1.20;0.73;;;4.50;99.90;;;3.67;100.00;96979.81;5015306;28;20041;-38
2023/01/10 00:55:40;;;;;;;0.70;0.68;;;4.50;99.90;;;3.69;100.00;96978.88;5022919;28;20437;-38
2023/01/10 00:58:09;;;;;;;1.42;0.73;;;4.50;99.90;;;3.63;100.00;96968.56;5019031;28;20026;-38
2023/01/10 01:00:35;;;;;;;1.38;0.80;;;4.50;99.90;;;3.67;100.00;96980.66;5013078;28;20033;-38
2023/01/10 01:03:01;;;;;;;3.53;0.85;;;4.50;99.90;;;3.63;100.00;96971.19;5020458;28;20025;-37
2023/01/10 01:05:27;;;;;;;1.25;0.75;;;4.50;99.90;;;3.65;100.00;96989.41;5012343;28;20029;-38
2023/01/10 01:07:53;;;;;;;1.63;0.82;;;4.50;99.90;;;3.65;100.00;96989.41;5013695;28;20044;-37
2023/01/10 01:10:27;;;;;;;1.38;0.80;;;4.50;99.90;;;3.57;100.00;96990.41;5010639;28;20029;-37
2023/01/10 01:13:19;;;;;;;1.50;0.88;;;4.50;99.90;;;3.65;100.00;97005.91;5014560;28;20234;-38
2023/01/10 01:15:46;;;;;;;1.40;0.93;;;4.50;99.90;;;3.67;100.00;97011.97;5018730;28;20484;-38
2023/01/10 01:18:17;;;;;;;2.08;0.85;;;4.50;99.90;;;3.65;100.00;97018.94;5018611;28;20079;-38
2023/01/10 01:20:47;;;;;;;4.03;0.90;;;4.50;99.90;;;3.67;100.00;97025.00;4998354;28;20021;-38
2023/01/10 01:23:14;;;;;;;2.88;1.10;;;4.50;99.90;;;3.65;100.00;97026.78;5019173;28;20048;-38
2023/01/10 01:25:40;;;;;;;1.50;1.00;;;4.50;99.90;;;3.66;100.00;97045.88;5015178;28;20030;-37
2023/01/10 01:28:07;;;;;;;3.65;1.20;;;4.50;99.90;;;3.63;100.00;97038.97;5018772;28;20044;-37
2023/01/10 01:30:32;;;;;;;1.42;0.93;;;4.50;99.90;;;3.67;100.00;97051.06;5013447;28;20035;-37
2023/01/10 01:32:58;;;;;;;3.05;0.90;;;4.50;99.90;;;3.69;100.00;97048.44;5019170;28;20040;-37
2023/01/10 01:35:24;;;;;;;1.92;1.15;;;4.50;99.90;;;3.73;100.00;97063.16;5018435;28;20041;-37
2023/01/10 01:37:50;;;;;;;1.20;0.80;;;4.50;99.90;;;3.69;100.00;97062.34;5021318;28;20026;-37
2023/01/10 01:40:19;;;;;;;4.75;0.93;;;4.50;99.90;;;3.77;100.00;97064.88;5015595;28;21231;-37
2023/01/10 01:42:46;;;;;;;0.90;0.70;;;4.60;99.90;;;3.71;100.00;97068.41;5022263;28;20037;-37
2023/01/10 01:45:32;;;;;;;1.85;0.80;;;4.60;99.90;;;3.67;100.00;97079.78;5019451;28;20269;-37
2023/01/10 01:48:16;;;;;;;1.08;0.60;;;4.60;99.90;;;3.63;100.00;97078.94;5024718;28;20041;-37
2023/01/10 01:51:12;;;;;;;0.55;0.45;;;4.50;99.90;;;3.68;100.00;97104.09;5022021;28;20037;-37
2023/01/10 01:53:59;;;;;;;1.13;0.57;;;4.50;99.90;;;3.71;100.00;97111.88;5021212;28;20034;-37
2023/01/10 01:56:41;;;;;;;1.05;0.43;;;4.60;99.90;;;3.70;100.00;97118.00;5021665;28;20036;-37
2023/01/10 01:59:39;;;;;;;0.43;0.40;;;4.60;99.90;;;3.66;100.00;97109.34;5007325;28;20052;-37
2023/01/10 02:02:16;;;;;;;1.33;0.50;;;4.60;99.90;;;3.80;100.00;97123.06;5021080;28;20063;-37
2023/01/10 02:05:08;;;;;;;0.98;0.60;;;4.60;99.90;;;3.75;100.00;97123.97;5015226;28;20164;-37
2023/01/10 02:07:38;;;;;;;1.27;0.60;;;4.60;99.90;;;3.60;100.00;97109.44;4998434;28;20532;-37
2023/01/10 02:10:17;;;;;;;1.02;0.68;;;4.50;99.90;;;3.63;100.00;97125.91;5023500;28;20068;-37
2023/01/10 02:12:46;;;;;;;2.03;0.60;;;4.50;99.90;;;3.63;100.00;97125.91;4994347;28;20054;-37
2023/01/10 02:15:14;;;;;;;0.57;0.50;;;4.50;99.90;;;3.59;100.00;97145.06;4997267;28;20032;-37
2023/01/10 02:17:40;;;;;;;0.70;0.60;;;4.50;99.90;;;3.58;100.00;97143.34;4998216;28;20487;-37
2023/01/10 02:20:11;;;;;;;1.70;0.70;;;4.50;99.90;;;3.61;100.00;97153.75;5018722;28;20057;-37
2023/01/10 02:23:12;;;;;;;1.33;0.73;;;4.50;99.90;;;3.55;100.00;97159.06;5015564;28;20421;-37
2023/01/10 02:26:25;;;;;;;2.45;0.75;;;4.40;99.90;;;3.48;100.00;97166.94;5004923;28;20095;-37
2023/01/10 02:29:59;;;;;;;3.08;1.02;;;4.30;99.90;;;3.41;100.00;97161.81;5007554;28;20033;-37
2023/01/10 02:32:49;;;;;;;3.58;1.23;;;4.30;99.90;;;3.36;100.00;97181.88;5011391;28;20124;-37
2023/01/10 02:35:24;;;;;;;1.75;1.27;;;4.20;99.90;;;3.38;100.00;97189.66;5013826;23;20050;-51
2023/01/10 02:38:10;;;;;;;3.20;1.15;;;4.20;99.90;;;3.32;100.00;97195.81;5003941;28;20021;-51
2023/01/10 02:41:14;;;;;;;4.20;1.60;;;4.20;99.90;;;3.26;100.00;97198.47;5011478;28;20032;-52
2023/01/10 02:43:54;;;;;;;2.28;1.35;;;4.10;99.90;;;3.23;100.00;97194.19;5010129;28;20076;-49
2023/01/10 02:46:26;;;;;;;2.03;1.25;;;4.10;99.90;;;3.18;100.00;97206.41;4984357;28;20033;-48
2023/01/10 02:48:53;;;;;;;4.22;1.30;;;4.10;99.90;;;3.13;100.00;97209.94;4998317;28;20056;-50
2023/01/10 02:51:26;;;;;;;4.53;1.38;;;4.00;99.90;;;3.08;100.00;97186.50;4999577;28;20038;-51
2023/01/10 02:54:11;;;;;;;1.92;1.30;;;4.00;99.90;;;3.08;100.00;97199.53;5001087;28;20050;-51
2023/01/10 02:57:29;;;;;;;3.28;1.20;;;4.00;99.90;;;3.02;100.00;97205.69;4994677;28;20084;-50
2023/01/10 03:00:57;;;;;;;2.60;1.13;;;3.90;99.90;;;2.94;100.00;97212.69;4961037;28;20031;-51
2023/01/10 03:03:48;;;;;;;1.88;1.10;;;3.80;99.90;;;2.92;100.00;97217.06;4920089;28;20045;-52
2023/01/10 03:06:32;;;;;;;3.77;1.50;;;3.80;99.90;;;2.91;100.00;97233.59;4984309;28;20030;-51
2023/01/10 03:09:17;;;;;;;2.60;1.38;;;3.70;99.90;;;2.86;100.00;97224.94;5000504;28;20057;-53
2023/01/10 03:11:45;;;;;;;2.70;1.20;;;3.70;99.90;;;2.86;100.00;97232.75;4978482;28;20396;-50
2023/01/10 03:14:26;;;;;;;3.70;1.55;;;3.70;99.90;;;2.86;100.00;97245.78;4996377;28;20037;-48
2023/01/10 03:17:06;;;;;;;2.60;1.45;;;3.70;99.90;;;2.83;100.00;97248.41;4994868;28;20294;-51
2023/01/10 03:19:39;;;;;;;5.60;1.60;;;3.70;99.90;;;2.86;100.00;97256.22;5006664;28;20037;-50
2023/01/10 03:22:07;;;;;;;4.07;1.75;;;3.70;99.90;;;2.88;100.00;97262.25;4976971;28;20789;-50
2023/01/10 03:24:40;;;;;;;6.00;1.98;;;3.70;99.90;;;2.86;100.00;97271.84;4987744;28;20064;-51
2023/01/10 03:27:29;;;;;;;8.63;2.28;;;3.70;99.90;;;2.85;100.00;97265.78;4997808;28;20117;-49
2023/01/10 03:30:25;;;;;;;5.28;2.42;;;3.70;99.90;;;2.91;100.00;97277.88;5000458;28;20037;-48
2023/01/10 03:32:53;;;;;;;9.55;3.25;;;3.70;99.90;;;2.88;100.00;97284.84;4983081;28;20482;-51
2023/01/10 03:35:21;;;;;;;6.35;2.30;;;3.70;99.90;;;2.81;100.00;97292.69;4996675;28;20045;-50
2023/01/10 03:38:07;;;;;;;6.80;2.67;;;3.70;99.90;;;2.78;100.00;97299.66;4984831;28;20034;-51
2023/01/10 03:40:42;;;;;;;12.15;3.10;;;3.60;99.90;;;2.74;100.00;97301.44;4984691;28;20113;-48
2023/01/10 03:46:25;;;;;;;10.40;3.00;;;3.60;99.90;;;2.77;100.00;97324.00;4997831;28;20044;-51
2023/01/10 03:48:51;;;;;;;4.97;2.60;;;3.60;99.90;;;2.77;100.00;97322.25;4977394;28;20080;-50
2023/01/10 03:51:18;;;;;;;8.18;2.75;;;3.60;99.90;;;2.79;100.00;97325.72;4996392;28;20416;-46
2023/01/10 03:53:44;;;;;;;6.93;2.63;;;3.60;99.90;;;2.81;100.00;97330.91;4996264;28;20080;-50
2023/01/10 03:56:13;;;;;;;8.35;2.75;;;3.60;99.90;;;2.75;100.00;97328.38;4979651;28;20113;-49
2023/01/10 03:58:39;;;;;;;7.05;2.25;;;3.60;99.90;;;2.73;100.00;97336.19;4999145;28;20026;-51
2023/01/10 04:01:05;;;;;;;7.70;2.17;;;3.60;99.90;;;2.70;100.00;97333.59;5000929;28;20033;-52
2023/01/10 04:03:31;;;;;;;5.75;2.33;;;3.60;99.90;;;2.67;100.00;97341.41;4996866;28;20034;-50
2023/01/10 04:05:56;;;;;;;8.18;2.38;;;3.50;99.90;;;2.58;100.00;97339.72;4987561;28;20084;-49
2023/01/10 04:08:22;;;;;;;6.68;2.20;;;3.50;99.90;;;2.55;100.00;97350.19;4999212;28;20030;-51
2023/01/10 04:10:48;;;;;;;4.20;2.25;;;3.40;99.90;;;2.55;100.00;97362.31;4997641;28;20136;-51
2023/01/10 04:13:14;;;;;;;8.50;2.20;;;3.40;99.90;;;2.50;100.00;97356.28;4992774;28;20052;-51
2023/01/10 04:15:40;;;;;;;4.35;2.05;;;3.40;99.90;;;2.50;100.00;97361.50;4993153;28;20029;-50
2023/01/10 04:18:06;;;;;;;9.98;2.33;;;3.30;99.90;;;2.43;100.00;97358.06;4998342;28;20044;-51
2023/01/10 04:20:31;;;;;;;4.45;2.10;;;3.30;99.90;;;2.47;100.00;97363.22;4998491;28;20692;-51
2023/01/10 04:22:57;;;;;;;5.95;2.17;;;3.30;99.90;;;2.42;100.00;97369.34;4992317;28;20100;-51
2023/01/10 04:25:23;;;;;;;6.35;1.83;;;3.20;99.90;;;2.34;100.00;97374.59;4993257;28;20065;-51
2023/01/10 04:27:50;;;;;;;8.80;2.40;;;3.20;99.90;;;2.40;100.00;97382.34;4996692;28;20225;-51
2023/01/10 04:30:18;;;;;;;4.97;2.28;;;3.20;99.90;;;2.42;100.00;97388.44;4994513;28;20032;-49
2023/01/10 04:32:43;;;;;;;6.03;2.45;;;3.20;99.90;;;2.32;100.00;97389.34;4995853;28;20038;-50
2023/01/10 04:35:09;;;;;;;9.45;2.33;;;3.20;99.90;;;2.28;100.00;97385.03;4996012;28;20423;-49
2023/01/10 04:37:36;;;;;;;8.93;2.28;;;3.10;99.90;;;2.24;100.00;97397.19;4992336;28;20022;-51
2023/01/10 04:40:03;;;;;;;7.15;2.30;;;3.10;99.90;;;2.21;100.00;97402.41;5003707;28;20382;-49
2023/01/10 04:42:29;;;;;;;4.68;2.03;;;3.10;99.90;;;2.23;100.00;97415.41;5000847;28;20286;-51
2023/01/10 04:44:54;;;;;;;7.28;1.88;;;3.10;99.90;;;2.20;100.00;97420.63;5002296;28;20690;-52
2023/01/10 04:47:20;;;;;;;8.38;2.55;;;3.00;99.90;;;2.21;100.00;97444.03;4996600;28;20099;-51
2023/01/10 04:49:46;;;;;;;7.80;2.40;;;3.10;99.90;;;2.01;100.00;97397.28;4995481;28;20053;-51
2023/01/10 04:52:12;;;;;;;9.50;2.40;;;3.00;99.90;;;2.15;100.00;97443.19;5004718;28;20520;-49
2023/01/10 04:54:37;;;;;;;10.55;2.15;;;3.00;99.90;;;2.12;100.00;97453.59;5001618;28;20053;-51
2023/01/10 04:57:04;;;;;;;7.32;2.10;;;3.00;99.90;;;2.08;100.00;97458.81;4996178;28;20132;-51
2023/01/10 04:59:30;;;;;;;7.47;2.08;;;2.90;99.90;;;2.12;100.00;97461.38;5000621;28;20033;-51
2023/01/10 05:01:56;;;;;;;12.45;2.40;;;2.90;99.90;;;2.18;100.00;97464.84;4994405;28;20029;-51
2023/01/10 05:04:22;;;;;;;6.88;2.53;;;3.00;99.90;;;2.14;100.00;97462.28;4996148;28;20199;-49
2023/01/10 05:06:48;;;;;;;9.40;2.53;;;3.00;99.90;;;2.24;100.00;97464.84;4986605;28;20030;-49
2023/01/10 05:09:14;;;;;;;6.80;2.28;;;3.00;99.90;;;2.07;100.00;97470.09;4992519;28;20032;-50
2023/01/10 05:11:40;;;;;;;9.68;2.25;;;3.00;99.90;;;2.14;100.00;97477.88;4990812;28;20037;-50
2023/01/10 05:14:05;;;;;;;11.52;2.65;;;3.00;99.90;;;2.23;100.00;97483.94;5000552;28;20030;-49
2023/01/10 05:16:31;;;;;;;4.95;1.75;;;3.10;99.90;;;2.23;100.00;97478.72;4973974;28;20044;-51
2023/01/10 05:18:57;;;;;;;9.02;2.40;;;3.10;99.90;;;2.29;100.00;97478.69;4975963;28;20461;-49
2023/01/10 05:21:22;;;;;;;6.97;2.30;;;3.10;99.90;;;2.32;100.00;97482.19;4968479;28;21003;-49
2023/01/10 05:23:48;;;;;;;10.15;2.72;;;3.10;99.90;;;2.35;100.00;97489.97;5001336;28;20037;-51
2023/01/10 05:26:18;;;;;;;15.77;2.70;;;3.10;99.90;;;2.39;100.00;97487.34;4993029;28;20038;-51
2023/01/10 05:28:45;;;;;;;9.95;2.40;;;3.20;99.90;;;2.47;100.00;97503.78;4994769;28;20032;-50
2023/01/10 05:31:14;;;;;;;8.35;2.63;;;3.30;99.90;;;2.53;100.00;97504.66;4977469;28;20044;-49
2023/01/10 05:33:48;;;;;;;10.02;2.20;;;3.40;99.90;;;2.44;100.00;97485.59;4996512;28;20042;-50
2023/01/10 05:36:15;;;;;;;9.80;2.10;;;3.40;99.90;;;2.61;100.00;97510.72;4992400;28;20041;-49
2023/01/10 05:38:40;;;;;;;8.27;2.10;;;3.40;99.90;;;2.50;100.00;97494.28;4990491;28;20121;-49
2023/01/10 05:41:06;;;;;;;10.30;1.90;;;3.50;99.90;;;2.51;100.00;97493.38;4987373;28;20080;-51
2023/01/10 05:43:32;;;;;;;14.90;2.58;;;3.50;99.90;;;2.71;100.00;97525.44;4979155;28;20549;-50
2023/01/10 05:45:58;;;;;;;10.05;2.42;;;3.50;99.90;;;2.72;100.00;97527.16;4989151;28;20526;-48
2023/01/10 05:48:23;;;;;;;8.95;1.98;;;3.50;99.90;;;2.75;100.00;97534.09;4989431;28;20048;-47
2023/01/10 05:50:51;;;;;;;8.48;1.90;;;3.60;99.90;;;2.82;100.00;97539.28;4994745;28;20057;-49
2023/01/10 05:53:18;;;;;;;8.25;2.10;;;3.60;99.90;;;2.82;100.00;97534.06;4994196;28;20210;-47
2023/01/10 05:55:53;;;;;;;10.35;2.25;;;3.70;99.90;;;2.83;100.00;97540.13;4999162;28;20030;-47
2023/01/10 05:58:19;;;;;;;7.63;2.10;;;3.70;99.90;;;2.84;100.00;97542.75;4989485;28;20038;-48
2023/01/10 06:00:45;;;;;;;16.65;2.42;;;3.70;99.90;;;2.84;100.00;97550.56;4989020;28;20081;-49
2023/01/10 06:03:10;;;;;;;8.02;2.05;;;3.70;99.90;;;2.83;100.00;97554.00;4989473;28;21413;-50
2023/01/10 06:05:36;;;;;;;6.50;1.65;;;3.70;99.90;;;2.94;100.00;97555.72;4998994;28;20422;-49
2023/01/10 06:08:02;;;;;;;9.18;1.83;;;3.80;99.90;;;2.88;100.00;97558.38;4992211;28;20959;-50
2023/01/10 06:10:27;;;;;;;10.98;2.08;;;3.70;99.90;;;2.90;100.00;97564.44;4994478;28;20617;-49
2023/01/10 06:12:53;;;;;;;5.60;1.55;;;3.70;99.90;;;2.90;100.00;97577.47;4998804;28;20336;-50
2023/01/10 06:15:19;;;;;;;8.45;1.58;;;3.70;99.90;;;2.96;100.00;97580.03;4995715;28;20093;-50
2023/01/10 06:17:45;;;;;;;10.15;1.88;;;3.80;99.90;;;3.01;100.00;97593.91;4998992;28;20540;-50
2023/01/10 06:20:12;;;;;;;7.38;1.50;;;3.80;99.90;;;3.05;100.00;97575.66;4991686;28;20433;-51
2023/01/10 06:22:42;;;;;;;7.07;1.50;;;3.90;99.90;;;3.07;100.00;97578.25;4995002;28;20030;-50
2023/01/10 06:25:13;;;;;;;6.28;1.73;;;3.90;99.90;;;3.01;100.00;97586.09;4993352;28;20554;-50
2023/01/10 06:27:43;;;;;;;7.53;1.30;;;3.90;99.90;;;3.00;100.00;97581.78;4982907;28;20454;-46
2023/01/10 06:30:11;;;;;;;7.90;1.38;;;3.80;99.90;;;2.90;100.00;97585.28;4984627;28;20050;-51
2023/01/10 06:32:37;;;;;;;12.40;2.05;;;3.80;99.90;;;2.88;100.00;97597.44;4992109;28;20321;-50
2023/01/10 06:35:04;;;;;;;12.70;2.28;;;3.70;99.90;;;2.87;100.00;97601.75;4977142;28;20152;-49
2023/01/10 06:37:30;;;;;;;5.50;1.42;;;3.70;99.90;;;2.95;100.00;97612.19;4997819;28;20289;-50
2023/01/10 06:39:56;;;;;;;10.02;1.70;;;3.80;99.90;;;2.95;100.00;97615.63;4989532;28;20033;-47
2023/01/10 06:42:21;;;;;;;7.50;1.80;;;3.80;99.90;;;3.03;100.00;97629.53;4991745;28;20049;-48
2023/01/10 06:44:47;;;;;;;5.03;1.50;;;3.90;99.90;;;3.03;100.00;97626.03;4980713;28;20509;-46
2023/01/10 06:47:13;;;;;;;10.02;1.63;;;3.90;99.90;;;3.14;100.00;97621.66;4997747;28;20937;-47
2023/01/10 06:49:38;;;;;;;9.43;1.75;;;3.90;99.90;;;3.14;100.00;97624.28;4987849;28;20034;-50
2023/01/10 06:52:04;;;;;;;4.60;1.38;;;4.00;99.90;;;3.12;100.00;97631.19;4989539;28;20037;-48
2023/01/10 06:54:30;;;;;;;9.98;1.70;;;4.00;99.90;;;3.12;100.00;97640.78;5000797;28;20022;-51
2023/01/10 06:56:56;;;;;;;7.65;2.00;;;4.00;99.90;;;3.09;100.00;97632.94;4994343;28;20021;-48
2023/01/10 06:59:21;;;;;;;7.13;1.38;;;3.90;99.90;;;3.06;100.00;97646.88;4998310;28;20045;-51
2023/01/10 07:01:47;;;;;;;5.63;1.80;;;4.00;99.90;;;3.06;100.00;97654.69;4983539;28;20029;-51
2023/01/10 07:04:13;;;;;;;3.35;1.23;;;3.90;99.90;;;3.03;100.00;97655.59;4992316;28;20296;-51
2023/01/10 07:06:39;;;;;;;7.05;1.55;;;3.90;99.90;;;3.04;100.00;97657.31;4996031;28;20041;-50
2023/01/10 07:09:05;;;;;;;13.00;1.77;;;3.90;99.90;;;3.06;100.00;97667.72;4998128;28;20037;-50
2023/01/10 07:11:33;;;;;;;6.78;1.80;;;3.90;99.90;;;3.04;100.00;97666.88;5006759;28;20037;-50
2023/01/10 07:14:00;;;;;;;7.65;2.25;;;3.90;99.90;;;3.04;100.00;97672.94;5000877;28;20042;-50
2023/01/10 07:16:26;;;;;;;8.82;1.70;;;3.90;99.90;;;3.07;100.00;97679.88;5003953;28;20041;-51
2023/01/10 07:18:51;;;;;;;6.78;1.50;;;3.90;99.90;;;3.09;100.00;97691.19;4997216;28;20022;-50
2023/01/10 07:21:18;;;;;;;7.00;1.73;;;4.00;99.90;;;3.09;100.00;97699.00;5005648;28;20386;-49
2023/01/10 07:23:48;;;;;;;5.05;1.60;;;4.00;99.90;;;3.15;100.00;97709.38;4998268;28;20113;-51
2023/01/10 07:26:16;;;;;;;8.18;1.70;;;4.00;99.90;;;3.16;100.00;97708.53;5001244;28;20279;-50
2023/01/10 07:28:52;;;;;;;4.57;1.30;;;4.00;99.90;;;3.16;100.00;97697.22;4999824;28;20087;-50
2023/01/10 07:31:21;;;;;;;8.38;1.75;;;4.00;99.90;;;3.21;100.00;97696.34;4998261;28;20040;-50
2023/01/10 07:33:47;;;;;;;5.60;1.30;;;4.00;99.90;;;3.25;100.00;97699.81;4989583;28;20053;-50
2023/01/10 07:36:13;;;;;;;7.38;1.45;;;4.10;99.90;;;3.27;100.00;97699.78;4999705;28;20371;-49
2023/01/10 07:38:39;;;;;;;9.15;1.52;;;4.10;99.90;;;3.26;100.00;97691.13;4984170;28;20041;-50
2023/01/10 07:41:05;;;;;;;6.07;1.67;;;4.10;99.90;;;3.28;100.00;97702.41;4963101;28;20058;-50
2023/01/10 07:43:31;;;;;;;7.40;1.63;;;4.10;99.90;;;3.30;100.00;97703.25;4996647;28;20030;-51
2023/01/10 07:45:59;;;;;;;4.72;1.42;;;4.10;99.90;;;3.35;100.00;97719.75;4995027;28;20065;-50
2023/01/10 07:48:24;;;;;;;5.57;1.60;;;4.20;99.90;;;3.39;100.00;97731.94;4982114;28;20042;-51
2023/01/10 07:50:58;;;;;;;4.43;1.08;;;4.20;99.90;;;3.37;100.00;97724.97;4982196;28;20093;-51
2023/01/10 07:53:26;;;;;;;4.07;1.48;;;4.20;99.90;;;3.46;100.00;97750.16;4988837;28;20045;-47
2023/01/10 07:55:51;;;;;;;16.17;2.05;;;4.30;99.90;;;3.47;100.00;97750.16;4991561;28;20037;-50
2023/01/10 07:58:17;;;;;;;5.22;1.38;;;4.30;99.90;;;3.50;100.00;97746.66;4992372;28;20232;-52
2023/01/10 08:00:44;;;;;;;4.40;1.50;;;4.30;99.90;;;3.51;100.00;97754.47;4999804;28;20071;-47
2023/01/10 08:03:11;;;;;;;5.93;1.45;;;4.30;99.90;;;3.55;100.00;97770.97;4991170;28;20038;-51
2023/01/10 08:05:37;;;;;;;9.07;1.80;;;4.40;99.90;;;3.57;100.00;97766.63;5001756;28;20069;-52
2023/01/10 08:08:08;;;;;;;6.43;1.63;;;4.40;99.90;;;3.66;100.00;97765.72;4993612;28;20025;-51
2023/01/10 08:10:36;;;;;;;7.63;1.73;;;4.50;99.90;;;3.71;100.00;97769.19;4994718;28;20556;-50
2023/01/10 08:13:02;;;;;;;9.25;1.83;;;4.50;99.90;;;3.73;100.00;97757.91;4989382;28;20698;-50
2023/01/10 08:15:28;;;;;;;9.35;1.83;;;4.50;99.90;;;3.75;100.00;97761.38;4980291;28;20036;-51
2023/01/10 08:17:53;;;;;;;6.53;1.65;;;4.60;99.90;;;3.80;100.00;97763.94;4980998;28;20443;-50
2023/01/10 08:20:19;;;;;;;5.32;1.58;;;4.60;99.90;;;3.83;100.00;97763.94;4994980;28;20435;-50
2023/01/10 08:22:45;;;;;;;4.03;1.20;;;4.60;99.90;;;3.86;100.00;97769.13;5000312;28;20088;-50
2023/01/10 08:25:11;;;;;;;8.10;1.60;;;4.70;99.90;;;3.89;100.00;97776.94;4994086;28;20041;-47
2023/01/10 08:27:37;;;;;;;5.03;1.40;;;4.70;99.90;;;3.93;100.00;97778.69;4986752;28;20038;-46
2023/01/10 08:30:06;;;;;;;5.40;1.50;;;4.80;99.90;;;4.01;100.00;97787.31;4995247;28;20477;-49
2023/01/10 08:32:32;;;;;;;7.68;1.50;;;4.80;99.90;;;4.04;100.00;97788.19;4999537;28;20025;-49
2023/01/10 08:34:58;;;;;;;3.65;1.38;;;4.80;99.90;;;4.09;100.00;97789.91;4994452;23;20060;-38
2023/01/10 08:37:24;;;;;;;5.60;1.35;;;4.90;99.90;;;4.11;100.00;97808.16;5021316;28;20562;-38
2023/01/10 08:39:49;;;;;;;6.90;1.52;;;4.90;99.90;;;4.12;100.00;97802.06;5026799;28;20079;-39
2023/01/10 08:42:15;;;;;;;7.63;1.70;;;4.90;99.90;;;4.13;100.00;97791.63;5029793;28;20032;-39
2023/01/10 08:44:41;;;;;;;5.10;1.20;;;5.00;99.90;;;4.24;100.00;97807.25;5027608;28;20468;-39
2023/01/10 08:47:07;;;;;;;4.35;1.20;;;5.00;99.90;;;4.25;100.00;97810.72;5022695;28;20044;-39
2023/01/10 08:49:33;;;;;;;8.10;1.75;;;5.10;99.90;;;4.19;100.00;97788.13;5028665;28;20499;-39
2023/01/10 08:52:01;;;;;;;2.30;0.93;;;5.10;99.90;;;4.42;100.00;97815.84;5028284;28;20035;-39
2023/01/10 08:54:27;;;;;;;5.15;1.40;;;5.20;99.90;;;4.46;100.00;97813.19;5027192;28;20025;-39
2023/01/10 08:56:53;;;;;;;5.35;1.23;;;5.20;99.90;;;4.53;100.00;97809.66;5028229;28;20040;-39
2023/01/10 08:59:18;;;;;;;6.07;1.50;;;5.30;99.90;;;4.60;100.00;97815.72;5012420;28;20485;-39
2023/01/10 09:01:44;;;;;;;5.45;1.45;;;5.30;99.90;;;4.64;100.00;97811.34;5029997;28;20029;-39
2023/01/10 09:04:10;;;;;;;5.13;1.55;;;5.40;99.90;;;4.74;100.00;97820.88;5028068;28;20037;-39
2023/01/10 09:06:36;;;;;;;7.55;1.58;;;5.50;99.90;;;4.78;100.00;97823.44;5029985;28;20453;-38
2023/01/10 09:09:02;;;;;;;4.55;1.58;;;5.60;99.90;;;4.78;100.00;97823.44;5032613;28;20026;-38
2023/01/10 09:11:28;;;;;;;6.70;1.58;;;5.60;99.90;;;4.82;100.00;97824.28;5030029;28;20714;-38
2023/01/10 09:13:53;;;;;;;5.32;1.50;;;5.60;99.90;;;4.87;100.00;97830.34;5030176;28;20033;-38
2023/01/10 09:16:22;;;;;;;5.68;1.60;;;5.60;99.90;;;4.90;100.00;97840.78;5028921;28;20488;-38
2023/01/10 09:18:48;;;;;;;4.53;1.92;;;5.70;99.90;;;4.95;100.00;97844.25;5021080;28;20033;-38
2023/01/10 09:21:14;;;;;;;7.18;1.42;;;5.70;99.90;;;4.90;100.00;97848.63;5027807;28;20036;-38
2023/01/10 09:23:39;;;;;;;8.50;1.33;;;5.70;99.90;;;4.91;100.00;97846.88;5027077;28;20124;-38
2023/01/10 09:26:05;;;;;;;6.53;1.48;;;5.70;99.90;;;5.00;100.00;97853.78;5030649;28;20061;-38
2023/01/10 09:28:31;;;;;;;5.13;1.40;;;5.70;99.90;;;5.03;100.00;97848.53;5029917;28;20883;-38
2023/01/10 09:30:57;;;;;;;4.38;1.73;;;5.80;99.90;;;5.10;100.00;97855.47;5026909;28;20036;-39
2023/01/10 09:33:23;;;;;;;6.07;1.60;;;5.80;99.90;;;5.08;100.00;97859.81;5024501;28;20353;-38
2023/01/10 09:35:49;;;;;;;4.15;1.33;;;5.80;99.90;;;5.09;100.00;97861.56;5032042;28;20480;-39
2023/01/10 09:38:21;;;;;;;4.93;1.60;;;5.80;99.90;;;5.14;100.00;97865.88;5031778;28;20148;-38
2023/01/10 09:41:32;;;;;;;5.07;1.80;;;5.90;99.90;;;5.15;100.00;97877.19;5028412;28;20029;-38
2023/01/10 09:44:16;;;;;;;7.18;1.75;;;5.90;99.90;;;5.25;100.00;97873.63;5028755;28;20163;-38
2023/01/10 09:47:25;;;;;;;4.63;1.73;;;6.00;99.90;;;5.30;100.00;97873.59;5009710;28;20033;-38
2023/01/10 09:50:14;;;;;;;6.57;1.70;;;6.10;99.90;;;5.40;100.00;97879.59;5009471;28;20501;-38
2023/01/10 09:52:46;;;;;;;7.78;2.00;;;6.10;99.90;;;5.43;100.00;97893.53;5029124;28;20327;-38
2023/01/10 09:55:38;;;;;;;5.07;1.80;;;6.20;99.90;;;5.47;100.00;97904.84;5009617;28;20168;-38
2023/01/10 09:58:12;;;;;;;5.00;1.70;;;6.20;99.90;;;5.43;100.00;97893.53;5027150;28;20388;-38
2023/01/10 10:00:46;;;;;;;5.10;1.55;;;6.30;99.90;;;5.40;100.00;97890.97;5013181;28;20119;-38
2023/01/10 10:03:33;;;;;;;3.95;1.55;;;6.30;99.90;;;5.50;100.00;97902.19;5016674;28;20033;-38
2023/01/10 10:05:59;;;;;;;6.63;1.67;;;6.20;99.90;;;5.42;100.00;97902.28;5009453;28;20025;-38
2023/01/10 10:08:25;;;;;;;8.02;1.80;;;6.20;99.90;;;5.41;100.00;97903.13;5033722;28;20079;-38
2023/01/10 10:11:03;;;;;;;5.95;1.60;;;6.20;99.90;;;5.48;100.00;97899.59;5034401;28;20516;-38
2023/01/10 10:13:46;;;;;;;4.55;1.58;;;6.20;99.90;;;5.57;100.00;97884.72;5034825;28;20037;-38
2023/01/10 10:16:28;;;;;;;6.47;1.80;;;6.30;99.90;;;5.64;100.00;97881.16;5016944;28;20036;-38
2023/01/10 10:19:13;;;;;;;8.48;1.92;;;6.40;99.90;;;5.73;100.00;97879.28;5035094;28;20520;-38
2023/01/10 10:22:22;;;;;;;6.70;1.88;;;6.50;99.90;;;5.83;100.00;97879.19;5016444;28;20179;-38
2023/01/10 10:25:17;;;;;;;8.18;2.03;;;6.60;99.90;;;5.94;100.00;97879.97;5034867;28;20037;-38
2023/01/10 10:28:15;;;;;;;6.75;1.77;;;6.60;99.90;;;5.96;100.00;97877.34;5013153;28;20040;-38
2023/01/10 10:31:17;;;;;;;4.82;1.70;;;6.70;99.90;;;5.81;100.00;97889.69;4996820;28;20045;-38
2023/01/10 10:34:09;;;;;;;10.95;1.77;;;6.70;99.90;;;5.76;100.00;97890.63;5033387;28;20116;-38
2023/01/10 10:36:46;;;;;;;10.43;2.47;;;6.60;99.90;;;5.73;100.00;97897.63;5032858;28;20048;-38
2023/01/10 10:39:17;;;;;;;5.25;1.92;;;6.50;99.90;;;5.67;100.00;97894.19;5017147;28;20037;-38
2023/01/10 10:41:48;;;;;;;7.30;1.80;;;6.50;99.90;;;5.57;100.00;97885.56;5028219;28;20025;-38
2023/01/10 10:44:39;;;;;;;5.03;1.50;;;6.40;99.90;;;5.71;100.00;97882.81;5030438;28;20061;-38
2023/01/10 10:47:22;;;;;;;4.13;1.40;;;6.40;99.90;;;5.84;100.00;97875.72;5015158;28;20349;-38
2023/01/10 10:50:15;;;;;;;4.03;1.40;;;6.60;99.90;;;5.99;100.00;97877.31;5030957;28;20040;-38